createdAt,value
2022-07-31T00:00:26.680Z,101762.09
2022-07-31T00:02:54.834Z,101753.34
2022-07-31T00:05:23.155Z,101717.22
2022-07-31T00:07:51.360Z,101657.69
2022-07-31T00:10:19.537Z,101585.75
2022-07-31T00:12:50.013Z,101425.25
2022-07-31T00:15:19.386Z,101041.38
2022-07-31T00:17:47.593Z,100775.19
2022-07-31T00:20:18.313Z,100715.91
2022-07-31T00:22:48.834Z,100887.59
2022-07-31T00:25:17.442Z,100992.25
2022-07-31T00:27:45.992Z,101061.19
2022-07-31T00:30:17.107Z,101224.38
2022-07-31T00:32:45.833Z,101359.72
2022-07-31T00:35:14.813Z,101427.63
2022-07-31T00:37:44.392Z,101443.69
2022-07-31T00:40:15.501Z,101517.50
2022-07-31T00:42:44.166Z,101530.56
2022-07-31T00:45:13.387Z,101526.41
2022-07-31T00:47:43.565Z,101536.34
2022-07-31T00:50:12.230Z,101542.94
2022-07-31T00:52:40.514Z,101529.19
2022-07-31T00:55:09.625Z,101538.16
2022-07-31T00:57:38.001Z,101547.19
2022-07-31T01:00:07.459Z,101533.41
2022-07-31T01:02:35.689Z,101539.28
2022-07-31T01:05:05.729Z,101534.19
2022-07-31T01:07:42.960Z,101536.59
2022-07-31T01:10:15.424Z,101534.53
2022-07-31T01:12:54.006Z,101536.25
2022-07-31T01:19:54.987Z,101521.47
2022-07-31T01:22:46.808Z,101501.72
2022-07-31T01:25:26.662Z,101499.81
2022-07-31T01:28:05.685Z,101502.53
2022-07-31T01:30:44.398Z,101488.00
2022-07-31T01:33:16.526Z,101484.63
2022-07-31T01:35:50.113Z,101470.44
2022-07-31T01:38:23.937Z,101461.09
2022-07-31T01:40:58.239Z,101438.88
2022-07-31T01:43:31.023Z,101455.47
2022-07-31T01:47:20.928Z,101423.91
2022-07-31T01:49:52.714Z,101430.06
2022-07-31T01:52:22.033Z,101436.28
2022-07-31T01:54:52.819Z,101436.09
2022-07-31T01:57:23.701Z,101435.84
2022-07-31T01:59:55.095Z,101437.56
2022-07-31T02:02:23.869Z,101429.59
2022-07-31T02:04:53.914Z,101416.28
2022-07-31T02:07:23.869Z,101426.75
2022-07-31T02:09:58.710Z,101430.28
2022-07-31T02:12:33.089Z,101414.97
2022-07-31T02:15:03.915Z,101421.00
2022-07-31T02:17:32.648Z,101405.75
2022-07-31T02:20:04.241Z,101390.06
2022-07-31T02:22:32.309Z,101396.94
2022-07-31T02:25:00.495Z,101396.75
2022-07-31T02:27:57.170Z,101387.28
2022-07-31T02:30:19.469Z,101386.03
2022-07-31T02:32:48.664Z,101382.78
2022-07-31T02:35:20.003Z,101381.06
2022-07-31T02:37:51.915Z,101392.53
2022-07-31T02:40:21.331Z,101363.88
2022-07-31T02:42:50.141Z,101361.13
2022-07-31T02:45:18.962Z,101361.03
2022-07-31T02:47:48.584Z,101338.88
2022-07-31T02:50:20.356Z,101319.56
2022-07-31T02:52:48.874Z,101302.72
2022-07-31T02:55:18.580Z,101291.38
2022-07-31T02:57:48.314Z,101294.84
2022-07-31T03:00:22.946Z,101295.78
2022-07-31T03:02:51.465Z,101293.69
2022-07-31T03:05:21.514Z,101294.06
2022-07-31T03:07:50.251Z,101283.72
2022-07-31T03:10:18.867Z,101243.72
2022-07-31T03:12:51.660Z,101237.84
2022-07-31T03:15:22.001Z,101262.47
2022-07-31T03:17:51.488Z,101244.38
2022-07-31T03:20:21.813Z,101255.38
2022-07-31T03:22:50.364Z,101249.25
2022-07-31T03:25:21.504Z,101251.16
2022-07-31T03:27:56.309Z,101245.25
2022-07-31T03:30:25.978Z,101251.75
2022-07-31T03:32:54.598Z,101237.19
2022-07-31T03:35:24.836Z,101234.91
2022-07-31T03:37:59.532Z,101238.91
2022-07-31T03:40:27.715Z,101245.41
2022-07-31T03:43:07.204Z,101250.69
2022-07-31T03:45:47.653Z,101253.78
2022-07-31T03:48:17.048Z,101257.53
2022-07-31T03:50:46.874Z,101267.19
2022-07-31T03:53:15.665Z,101278.84
2022-07-31T03:55:44.080Z,101275.03
2022-07-31T03:58:13.217Z,101283.09
2022-07-31T04:00:42.521Z,101279.72
2022-07-31T04:03:13.730Z,101294.75
2022-07-31T04:05:43.988Z,101291.97
2022-07-31T04:08:34.408Z,101299.94
2022-07-31T04:11:17.853Z,101300.88
2022-07-31T04:13:47.182Z,101309.59
2022-07-31T04:16:15.231Z,101304.16
2022-07-31T04:18:50.829Z,101301.94
2022-07-31T04:21:25.436Z,101303.44
2022-07-31T04:23:54.999Z,101276.97
2022-07-31T04:26:26.426Z,101262.50
2022-07-31T04:28:54.694Z,101280.75
2022-07-31T04:31:23.530Z,101275.97
2022-07-31T04:33:56.537Z,101279.91
2022-07-31T04:36:30.421Z,101268.75
2022-07-31T04:39:03.162Z,101281.03
2022-07-31T04:41:32.570Z,101275.31
2022-07-31T04:44:00.739Z,101267.25
2022-07-31T04:46:30.922Z,101235.47
2022-07-31T04:49:00.249Z,101242.34
2022-07-31T04:51:28.451Z,101231.06
2022-07-31T04:53:56.620Z,101224.16
2022-07-31T04:56:38.031Z,101227.72
2022-07-31T04:59:10.153Z,101209.88
2022-07-31T05:01:39.762Z,101197.16
2022-07-31T05:04:09.290Z,101218.19
2022-07-31T05:06:38.485Z,101210.34
2022-07-31T05:09:09.496Z,101206.72
2022-07-31T05:11:42.199Z,101195.97
2022-07-31T05:14:12.116Z,101172.41
2022-07-31T05:16:40.634Z,101170.50
2022-07-31T05:19:14.328Z,101193.63
2022-07-31T05:21:53.047Z,101172.72
2022-07-31T05:24:32.574Z,101134.31
2022-07-31T05:27:04.903Z,101140.56
2022-07-31T05:29:34.353Z,101150.03
2022-07-31T05:32:05.320Z,101151.78
2022-07-31T05:34:33.363Z,101133.88
2022-07-31T05:37:02.369Z,101128.50
2022-07-31T05:39:32.174Z,101123.38
2022-07-31T05:42:01.698Z,101128.09
2022-07-31T05:44:32.957Z,101147.53
2022-07-31T05:49:31.934Z,101130.66
2022-07-31T05:52:05.610Z,101125.19
2022-07-31T05:54:36.469Z,101123.25
2022-07-31T05:57:04.712Z,101107.38
2022-07-31T05:59:35.491Z,101103.28
2022-07-31T06:02:03.935Z,101080.69
2022-07-31T06:04:32.352Z,101076.72
2022-07-31T06:07:00.361Z,101045.63
2022-07-31T06:09:30.501Z,101052.53
2022-07-31T06:12:02.446Z,101060.31
2022-07-31T06:14:32.390Z,101066.94
2022-07-31T06:17:07.740Z,101074.25
2022-07-31T06:19:39.508Z,101082.19
2022-07-31T06:22:08.046Z,101072.41
2022-07-31T06:24:38.339Z,101033.81
2022-07-31T06:27:13.742Z,101040.91
2022-07-31T06:29:59.790Z,101036.81
2022-07-31T06:32:29.825Z,101024.91
2022-07-31T06:34:57.777Z,101018.09
2022-07-31T06:37:26.880Z,101016.25
2022-07-31T06:39:58.430Z,100988.84
2022-07-31T06:42:34.051Z,100991.56
2022-07-31T06:45:03.370Z,100956.56
2022-07-31T06:47:36.049Z,100961.13
2022-07-31T06:50:25.700Z,100963.72
2022-07-31T06:53:06.303Z,100961.25
2022-07-31T06:56:08.674Z,100957.25
2022-07-31T06:58:57.863Z,100949.28
2022-07-31T07:01:30.102Z,100931.84
2022-07-31T07:05:01.484Z,100942.00
2022-07-31T07:07:20.797Z,101002.00
2022-07-31T07:09:58.893Z,100994.53
2022-07-31T07:12:39.302Z,100982.41
2022-07-31T07:15:58.970Z,100972.63
2022-07-31T07:18:56.490Z,100972.88
2022-07-31T07:21:28.232Z,100966.50
2022-07-31T07:24:04.465Z,100958.88
2022-07-31T07:26:43.978Z,100929.03
2022-07-31T07:29:15.255Z,100923.13
2022-07-31T07:31:47.520Z,100927.47
2022-07-31T07:34:37.751Z,100883.41
2022-07-31T07:37:14.248Z,100860.56
2022-07-31T07:39:57.638Z,100846.00
2022-07-31T07:42:37.086Z,100759.78
2022-07-31T07:45:12.071Z,100892.75
2022-07-31T07:48:06.551Z,101098.09
2022-07-31T07:50:38.338Z,101592.94
2022-07-31T07:56:09.239Z,101756.00
2022-07-31T07:58:37.667Z,101695.97
2022-07-31T08:01:08.477Z,101423.91
2022-07-31T08:03:49.801Z,101225.94
2022-07-31T08:06:27.815Z,101177.94
2022-07-31T08:08:56.037Z,101182.63
2022-07-31T08:11:31.917Z,101208.34
2022-07-31T08:14:00.523Z,101181.53
2022-07-31T08:16:33.398Z,101199.25
2022-07-31T08:19:01.467Z,101192.75
2022-07-31T08:21:37.694Z,101186.38
2022-07-31T08:24:07.411Z,101186.63
2022-07-31T08:27:00.261Z,101206.97
2022-07-31T08:29:33.227Z,101202.69
2022-07-31T08:32:11.722Z,101223.44
2022-07-31T08:34:54.056Z,101206.91
2022-07-31T08:37:52.206Z,101204.78
2022-07-31T08:40:12.154Z,101205.75
2022-07-31T08:42:42.044Z,101219.50
2022-07-31T08:45:11.660Z,101225.16
2022-07-31T08:47:43.604Z,101211.53
2022-07-31T08:50:15.724Z,101205.16
2022-07-31T08:52:46.187Z,101203.19
2022-07-31T08:55:55.662Z,101198.88
2022-07-31T08:58:34.991Z,101218.75
2022-07-31T09:01:13.088Z,101349.78
2022-07-31T09:03:52.932Z,101548.22
2022-07-31T09:06:34.202Z,100625.19
2022-07-31T09:09:03.919Z,101197.19
2022-07-31T09:11:47.207Z,101278.59
2022-07-31T09:14:29.466Z,101291.69
2022-07-31T09:17:10.057Z,101313.47
2022-07-31T09:19:52.897Z,101326.50
2022-07-31T09:22:27.017Z,101282.03
2022-07-31T09:24:55.402Z,101247.78
2022-07-31T09:27:29.799Z,101194.66
2022-07-31T09:30:11.998Z,101183.06
2022-07-31T09:32:52.301Z,101195.75
2022-07-31T09:35:20.456Z,101176.16
2022-07-31T09:37:49.452Z,101180.91
2022-07-31T09:40:21.233Z,101158.53
2022-07-31T09:42:59.348Z,101122.84
2022-07-31T09:46:11.231Z,101101.19
2022-07-31T09:48:39.282Z,101082.47
2022-07-31T09:51:12.658Z,101086.69
2022-07-31T09:53:43.878Z,101071.06
2022-07-31T09:56:14.810Z,101068.97
2022-07-31T09:58:43.219Z,101077.66
2022-07-31T10:01:14.535Z,101065.00
2022-07-31T10:03:42.900Z,101053.16
2022-07-31T10:06:16.704Z,101030.97
2022-07-31T10:08:46.423Z,101018.38
2022-07-31T10:11:20.385Z,101015.44
2022-07-31T10:13:52.546Z,100986.06
2022-07-31T10:16:22.806Z,100978.16
2022-07-31T10:18:57.802Z,100991.63
2022-07-31T10:21:33.532Z,100977.19
2022-07-31T10:24:05.406Z,100979.00
2022-07-31T10:26:59.367Z,100972.69
2022-07-31T10:29:22.866Z,100960.91
2022-07-31T10:31:58.730Z,100947.22
2022-07-31T10:34:28.473Z,100944.81
2022-07-31T10:37:00.384Z,100937.09
2022-07-31T10:39:45.627Z,100931.69
2022-07-31T10:42:24.466Z,100913.16
2022-07-31T10:44:56.954Z,100924.66
2022-07-31T10:47:27.317Z,100900.41
2022-07-31T10:49:56.766Z,100907.97
2022-07-31T10:52:29.294Z,100904.66
2022-07-31T10:54:59.566Z,100883.78
2022-07-31T10:57:29.683Z,100904.31
2022-07-31T10:59:58.253Z,100912.78
2022-07-31T11:02:34.738Z,100907.78
2022-07-31T11:05:17.661Z,100899.44
2022-07-31T11:07:50.356Z,100882.72
2022-07-31T11:10:20.972Z,100895.53
2022-07-31T11:13:00.897Z,100866.53
2022-07-31T11:15:30.752Z,100867.53
2022-07-31T11:18:23.519Z,100864.38
2022-07-31T11:21:09.511Z,100847.22
2022-07-31T11:23:55.990Z,100842.81
2022-07-31T11:26:41.867Z,100870.81
2022-07-31T11:30:01.430Z,100863.94
2022-07-31T11:32:16.792Z,100869.78
2022-07-31T11:34:51.217Z,100858.78
2022-07-31T11:37:22.841Z,100844.34
2022-07-31T11:39:52.850Z,100859.03
2022-07-31T11:42:26.389Z,100858.19
2022-07-31T11:45:10.954Z,100856.06
2022-07-31T11:48:12.039Z,100848.53
2022-07-31T11:50:32.430Z,100821.69
2022-07-31T11:53:04.674Z,100831.03
2022-07-31T11:55:32.661Z,100824.25
2022-07-31T11:58:00.754Z,100836.81
2022-07-31T12:00:30.124Z,100835.84
2022-07-31T12:02:59.090Z,100825.81
2022-07-31T12:05:37.723Z,100826.78
2022-07-31T12:08:09.302Z,100812.69
2022-07-31T12:10:37.876Z,100798.53
2022-07-31T12:13:06.138Z,100800.22
2022-07-31T12:15:34.454Z,100796.38
2022-07-31T12:18:03.767Z,100799.25
2022-07-31T12:20:36.741Z,100790.53
2022-07-31T12:23:07.952Z,100782.91
2022-07-31T12:25:57.926Z,100776.56
2022-07-31T12:28:26.455Z,100770.97
2022-07-31T12:31:00.273Z,100788.69
2022-07-31T12:33:41.758Z,100784.09
2022-07-31T12:36:14.618Z,100780.22
2022-07-31T12:38:48.470Z,100777.09
2022-07-31T12:41:18.646Z,100776.50
2022-07-31T12:43:51.298Z,100757.56
2022-07-31T12:46:37.514Z,100762.44
2022-07-31T12:49:08.410Z,100736.72
2022-07-31T12:51:46.091Z,100745.97
2022-07-31T12:54:16.722Z,100748.66
2022-07-31T12:56:47.496Z,100756.06
2022-07-31T12:59:15.684Z,100749.19
2022-07-31T13:01:45.817Z,100752.63
2022-07-31T13:04:19.103Z,100735.09
2022-07-31T13:06:51.520Z,100736.34
2022-07-31T13:09:19.970Z,100756.94
2022-07-31T13:11:57.582Z,100751.88
2022-07-31T13:14:26.504Z,100751.03
2022-07-31T13:19:39.905Z,100751.09
2022-07-31T13:22:07.869Z,100752.81
2022-07-31T13:24:36.129Z,100739.03
2022-07-31T13:27:09.016Z,100764.25
2022-07-31T13:29:37.138Z,100763.94
2022-07-31T13:32:06.007Z,100762.22
2022-07-31T13:34:42.946Z,100760.41
2022-07-31T13:37:13.205Z,100749.09
2022-07-31T13:39:48.839Z,100761.59
2022-07-31T13:42:29.911Z,100750.38
2022-07-31T13:44:59.765Z,100740.72
2022-07-31T13:47:28.043Z,100731.69
2022-07-31T13:50:19.165Z,100737.06
2022-07-31T13:52:47.116Z,100734.34
2022-07-31T13:55:15.415Z,100729.13
2022-07-31T13:57:44.855Z,100734.97
2022-07-31T14:00:15.101Z,100730.53
2022-07-31T14:02:46.659Z,100710.72
2022-07-31T14:05:14.792Z,100723.22
2022-07-31T14:07:48.164Z,100722.84
2022-07-31T14:10:21.075Z,100723.31
2022-07-31T14:12:53.506Z,100712.31
2022-07-31T14:15:22.254Z,100705.69
2022-07-31T14:17:50.609Z,100715.72
2022-07-31T14:20:19.136Z,100706.81
2022-07-31T14:22:47.262Z,100718.66
2022-07-31T14:25:15.351Z,100714.13
2022-07-31T14:27:54.352Z,100714.41
2022-07-31T14:30:23.588Z,100705.00
2022-07-31T14:32:55.747Z,100714.66
2022-07-31T14:35:23.919Z,100720.41
2022-07-31T14:37:51.983Z,100708.78
2022-07-31T14:40:21.241Z,100704.13
2022-07-31T14:42:49.109Z,100726.28
2022-07-31T14:45:18.642Z,100711.47
2022-07-31T14:47:46.764Z,100722.47
2022-07-31T14:50:19.637Z,100709.66
2022-07-31T14:52:49.510Z,100727.38
2022-07-31T14:55:17.448Z,100721.00
2022-07-31T14:57:47.437Z,100724.53
2022-07-31T15:00:15.897Z,100718.31
2022-07-31T15:02:46.128Z,100726.63
2022-07-31T15:06:41.582Z,100720.97
2022-07-31T15:08:06.522Z,100725.63
2022-07-31T15:10:39.725Z,100722.00
2022-07-31T15:13:10.201Z,100716.59
2022-07-31T15:15:38.299Z,100732.25
2022-07-31T15:18:08.799Z,100739.22
2022-07-31T15:20:36.836Z,100721.63
2022-07-31T15:23:07.669Z,100729.81
2022-07-31T15:25:35.980Z,100730.91
2022-07-31T15:28:04.392Z,100734.69
2022-07-31T15:30:34.542Z,100720.34
2022-07-31T15:33:02.568Z,100720.47
2022-07-31T15:35:33.325Z,100722.94
2022-07-31T15:38:03.571Z,100726.63
2022-07-31T15:40:32.051Z,100719.78
2022-07-31T15:43:00.661Z,100717.56
2022-07-31T15:45:28.667Z,100717.19
2022-07-31T15:47:56.873Z,100717.69
2022-07-31T15:50:25.321Z,100703.13
2022-07-31T15:52:54.710Z,100707.81
2022-07-31T15:55:24.830Z,100717.34
2022-07-31T15:57:57.958Z,100724.06
2022-07-31T16:00:27.169Z,100722.13
2022-07-31T16:02:55.220Z,100717.22
2022-07-31T16:05:36.934Z,100720.03
2022-07-31T16:08:30.361Z,100722.09
2022-07-31T16:10:57.937Z,100714.16
2022-07-31T16:13:26.353Z,100723.66
2022-07-31T16:15:54.492Z,100712.19
2022-07-31T16:18:24.606Z,100710.50
2022-07-31T16:20:53.018Z,100713.19
2022-07-31T16:23:25.723Z,100696.56
2022-07-31T16:25:53.798Z,100707.06
2022-07-31T16:28:25.876Z,100713.91
2022-07-31T16:30:54.142Z,100703.28
2022-07-31T16:33:24.171Z,100710.16
2022-07-31T16:35:52.194Z,100702.19
2022-07-31T16:38:21.638Z,100705.13
2022-07-31T16:40:53.513Z,100692.53
2022-07-31T16:43:47.254Z,100707.81
2022-07-31T16:46:11.315Z,100681.97
2022-07-31T16:48:39.487Z,100697.78
2022-07-31T16:51:07.638Z,100711.63
2022-07-31T16:54:10.367Z,100710.66
2022-07-31T16:56:25.676Z,100691.81
2022-07-31T16:58:55.797Z,100711.75
2022-07-31T17:01:58.917Z,100707.50
2022-07-31T17:04:13.856Z,100708.47
2022-07-31T17:06:41.883Z,100700.69
2022-07-31T17:09:16.835Z,100699.13
2022-07-31T17:11:53.112Z,100704.84
2022-07-31T17:14:22.956Z,100699.72
2022-07-31T17:16:53.331Z,100703.63
2022-07-31T17:19:42.999Z,100699.50
2022-07-31T17:22:17.977Z,100710.50
2022-07-31T17:24:50.819Z,100699.75
2022-07-31T17:27:22.856Z,100701.31
2022-07-31T17:29:50.967Z,100698.63
2022-07-31T17:32:21.381Z,100696.75
2022-07-31T17:34:49.789Z,100707.28
2022-07-31T17:37:18.351Z,100690.66
2022-07-31T17:39:48.256Z,100701.19
2022-07-31T17:42:18.050Z,100701.31
2022-07-31T17:44:54.999Z,100698.97
2022-07-31T17:47:25.930Z,100701.91
2022-07-31T17:49:57.587Z,100698.59
2022-07-31T17:52:29.708Z,100701.97
2022-07-31T17:54:57.919Z,100676.66
2022-07-31T17:57:30.520Z,100696.81
2022-07-31T18:00:06.918Z,100698.13
2022-07-31T18:02:35.192Z,100709.41
2022-07-31T18:05:04.712Z,100697.16
2022-07-31T18:07:33.029Z,100689.63
2022-07-31T18:10:03.473Z,100693.75
2022-07-31T18:12:56.596Z,100709.06
2022-07-31T18:15:34.908Z,100690.94
2022-07-31T18:18:05.492Z,100714.03
2022-07-31T18:20:41.119Z,100697.28
2022-07-31T18:23:15.615Z,100705.75
2022-07-31T18:25:47.261Z,100701.56
2022-07-31T18:28:15.321Z,100709.13
2022-07-31T18:30:46.483Z,100714.25
2022-07-31T18:33:17.489Z,100707.63
2022-07-31T18:35:46.119Z,100713.13
2022-07-31T18:38:18.679Z,100706.41
2022-07-31T18:40:51.246Z,100690.34
2022-07-31T18:43:19.842Z,100690.25
2022-07-31T18:45:50.574Z,100721.78
2022-07-31T18:48:20.465Z,100686.19
2022-07-31T18:50:59.137Z,100708.97
2022-07-31T18:53:32.270Z,100712.53
2022-07-31T18:56:00.230Z,100718.00
2022-07-31T18:58:28.256Z,100721.03
2022-07-31T19:00:57.621Z,100714.94
2022-07-31T19:03:26.584Z,100714.19
2022-07-31T19:05:54.800Z,100703.41
2022-07-31T19:08:23.254Z,100711.59
2022-07-31T19:10:53.482Z,100714.63
2022-07-31T19:13:21.930Z,100716.22
2022-07-31T19:15:51.542Z,100712.91
2022-07-31T19:18:24.460Z,100732.19
2022-07-31T19:21:16.020Z,100723.41
2022-07-31T19:23:45.613Z,100720.94
2022-07-31T19:26:13.602Z,100725.56
2022-07-31T19:28:43.238Z,100726.13
2022-07-31T19:31:11.873Z,100732.56
2022-07-31T19:33:41.528Z,100734.41
2022-07-31T19:36:12.408Z,100740.88
2022-07-31T19:38:44.416Z,100744.72
2022-07-31T19:41:21.066Z,100752.03
2022-07-31T19:43:50.039Z,100756.66
2022-07-31T19:46:18.107Z,100754.28
2022-07-31T19:48:48.912Z,100757.09
2022-07-31T19:51:18.381Z,100759.13
2022-07-31T19:53:46.589Z,100768.03
2022-07-31T19:56:20.523Z,100760.34
2022-07-31T19:58:50.250Z,100768.28
2022-07-31T20:01:21.694Z,100775.34
2022-07-31T20:03:52.987Z,100767.88
2022-07-31T20:06:28.910Z,100772.16
2022-07-31T20:08:59.247Z,100775.81
2022-07-31T20:11:27.219Z,100777.75
2022-07-31T20:13:56.625Z,100780.41
2022-07-31T20:16:37.146Z,100759.91
2022-07-31T20:19:08.861Z,100764.66
2022-07-31T20:21:38.150Z,100761.66
2022-07-31T20:24:09.220Z,100767.88
2022-07-31T20:26:48.643Z,100772.47
2022-07-31T20:29:20.654Z,100782.03
2022-07-31T20:31:49.122Z,100781.16
2022-07-31T20:34:39.666Z,100783.75
2022-07-31T20:37:07.894Z,100774.94
2022-07-31T20:39:35.975Z,100778.50
2022-07-31T20:42:05.872Z,100770.66
2022-07-31T20:44:34.468Z,100782.13
2022-07-31T20:47:02.524Z,100788.47
2022-07-31T20:49:34.981Z,100783.53
2022-07-31T20:52:05.821Z,100781.59
2022-07-31T20:54:34.832Z,100783.31
2022-07-31T20:57:03.111Z,100784.72
2022-07-31T20:59:31.548Z,100791.47
2022-07-31T21:01:59.768Z,100791.59
2022-07-31T21:04:27.658Z,100794.69
2022-07-31T21:06:55.530Z,100789.47
2022-07-31T21:09:24.855Z,100803.72
2022-07-31T21:11:52.980Z,100796.66
2022-07-31T21:14:21.565Z,100790.84
2022-07-31T21:16:50.014Z,100791.72
2022-07-31T21:19:20.025Z,100795.16
2022-07-31T21:21:48.047Z,100800.72
2022-07-31T21:24:16.641Z,100805.66
2022-07-31T21:26:46.878Z,100813.81
2022-07-31T21:29:19.429Z,100800.97
2022-07-31T21:31:49.982Z,100817.66
2022-07-31T21:34:19.090Z,100814.69
2022-07-31T21:36:51.034Z,100824.66
2022-07-31T21:39:19.716Z,100827.53
2022-07-31T21:41:49.785Z,100824.66
2022-07-31T21:44:18.706Z,100823.16
2022-07-31T21:46:51.656Z,100826.69
2022-07-31T21:49:22.053Z,100828.41
2022-07-31T21:51:50.568Z,100830.97
2022-07-31T21:54:19.454Z,100832.91
2022-07-31T21:56:47.437Z,100829.78
2022-07-31T21:59:16.693Z,100838.47
2022-07-31T22:01:58.007Z,100823.75
2022-07-31T22:04:34.323Z,100841.38
2022-07-31T22:07:20.424Z,100833.31
2022-07-31T22:09:48.342Z,100844.16
2022-07-31T22:12:16.234Z,100835.25
2022-07-31T22:14:51.482Z,100834.28
2022-07-31T22:17:19.269Z,100837.72
2022-07-31T22:19:47.712Z,100838.88
2022-07-31T22:22:17.413Z,100841.25
2022-07-31T22:24:45.817Z,100837.81
2022-07-31T22:27:44.945Z,100843.72
2022-07-31T22:30:16.802Z,100842.88
2022-07-31T22:32:45.196Z,100844.16
2022-07-31T22:35:14.360Z,100847.28
2022-07-31T22:37:43.343Z,100849.09
2022-07-31T22:40:12.194Z,100842.13
2022-07-31T22:42:40.361Z,100846.63
2022-07-31T22:45:09.381Z,100850.25
2022-07-31T22:47:39.232Z,100845.09
2022-07-31T22:50:11.231Z,100854.56
2022-07-31T22:52:39.168Z,100851.97
2022-07-31T22:55:07.738Z,100855.41
2022-07-31T22:57:35.610Z,100856.69
2022-07-31T23:00:07.147Z,100857.25
2022-07-31T23:02:39.684Z,100851.44
2022-07-31T23:05:09.509Z,100862.91
2022-07-31T23:07:37.654Z,100863.16
2022-07-31T23:10:08.363Z,100869.34
2022-07-31T23:12:36.584Z,100870.44
2022-07-31T23:15:05.869Z,100874.69
2022-07-31T23:17:33.752Z,100871.28
2022-07-31T23:20:03.163Z,100873.88
2022-07-31T23:22:34.179Z,100868.81
2022-07-31T23:25:03.109Z,100881.34
2022-07-31T23:27:31.098Z,100878.88
2022-07-31T23:29:59.092Z,100879.84
2022-07-31T23:32:28.101Z,100886.22
2022-07-31T23:34:56.291Z,100892.44
2022-07-31T23:37:25.604Z,100891.59
2022-07-31T23:39:53.425Z,100888.75
2022-07-31T23:42:38.508Z,100888.16
2022-07-31T23:45:08.292Z,100885.88
2022-07-31T23:47:41.283Z,100890.06
2022-07-31T23:50:13.156Z,100885.69
2022-07-31T23:52:42.607Z,100895.22
2022-07-31T23:55:11.931Z,100885.31
2022-07-31T23:57:40.957Z,100886.00
